Portada
METAR-TAF:

METAR-TAF

Aeroports :

Lanai City, Hawaii, Estats Units d'Amèrica

latitud: 20-47N, longitud: 156-57W, altitud: 399 m

Observació

L'informe es va fer fa 38 minuts, a les 01:56 UTC
Vent 20 kt del Nord-Est amb ràfegues de 27 kt
Temperatura 23°C
Humitat 69%
Pressió 1020 hPa
Visibilitat: 16.1 km
Cel clar

METAR: PHNY 270156Z AUTO 04020G27KT 10SM CLR 23/17 A3012 RMK AO2 PK WND 03028/0137 SLPNO T02330167

Hora: 16:34 (02:34 UTC)

Pronòstic

L'informe es va fer fa 28 minuts, a les 02:06 UTC
Pronòstic vàlid del 27 a les 02 UTC al 27 a les 24 UTC
Vent 20 kt del Nord-Est amb ràfegues de 25 kt
Visibilitat: 10 km
Núvols disperses a una alçada de 4000 ft
A partir de les 27 a les 0400 UTC
Vent 15 kt del Nord-Est
Visibilitat: 10 km
Cel clar
A partir de les 27 a les 2100 UTC
Vent 18 kt del Nord-Est
Visibilitat: 10 km
Cel ennuvolat a una alçada de 3000 ft

TAF: PHNY 270206Z 2702/2724 04020G25KT P6SM SCT040 FM270400 05015KT P6SM SKC FM272100 05018KT P6SM BKN030

Observacions i pronòstics meteorològics de més de 4000 aeroports (METAR i TAF).

Les estacions disponibles són els punts grocs i vermells al mapa.

Posi el ratolí al punt desitjat per veure el nom de l'estació.

Feu clic per veure les observacions i els pronòstics meteorològics.

Per canviar el mapa: feu clic els botons verds amb una creu de color negre per apropar; al botó verd amb un guió per allunyar la imatge; o en les fletxes verdes per a mapes adjacents.


METAR-TAF: